Weather at Sarajevo International Airport

Public forecast

Using degrees Celsius for public forecast. Weather courtesy of forecast.io.

Current aviation weather report (METAR) for Sarajevo International Airport

Report is more than 6 hours old.

Retrieved 2022/09/17 19:00 UTC (14 days ago):

LQSA 171900Z 30009KT 6000 RA FEW008 SCT015 BKN025 08/08 Q1008 NOSIG

Aviation forecast (TAF) for Sarajevo International Airport

Forecast is more than 12 hours old.

Retrieved 2022/09/17 18:11 UTC (14 days ago):

TAF LQSA 171700Z 1718/1818 28006KT 9999 FEW020 BKN040 TX16/1812Z TN06/1806Z PROB40 TEMPO 1718/1723 4000 RA BKN008 OVC030 PROB30 TEMPO 1718/1720 34012KT TSRA SCT007 FEW025CB BKN033 PROB30 TEMPO 1802/1807 3000 BR BKN004